createdAt,value
2023-03-29T00:01:35.413Z,2.33
2023-03-29T00:04:04.549Z,1.93
2023-03-29T00:06:33.072Z,2.70
2023-03-29T00:09:00.458Z,2.88
2023-03-29T00:11:27.392Z,3.15
2023-03-29T00:13:54.228Z,3.80
2023-03-29T00:16:20.855Z,2.53
2023-03-29T00:18:47.649Z,3.78
2023-03-29T00:21:14.170Z,3.03
2023-03-29T00:23:40.755Z,3.17
2023-03-29T00:26:08.334Z,4.40
2023-03-29T00:28:35.404Z,2.97
2023-03-29T00:31:08.195Z,4.28
2023-03-29T00:33:34.680Z,2.50
2023-03-29T00:36:01.898Z,3.25
2023-03-29T00:38:28.587Z,2.97
2023-03-29T00:40:54.991Z,2.73
2023-03-29T00:43:21.519Z,4.70
2023-03-29T00:45:48.116Z,3.80
2023-03-29T00:48:24.397Z,3.13
2023-03-29T00:50:56.202Z,5.43
2023-03-29T00:53:28.451Z,2.73
2023-03-29T00:56:07.417Z,4.05
2023-03-29T00:58:43.519Z,3.53
2023-03-29T01:01:17.557Z,2.63
2023-03-29T01:03:50.136Z,3.90
2023-03-29T01:06:19.480Z,4.67
2023-03-29T01:09:01.327Z,3.03
2023-03-29T01:11:32.427Z,3.80
2023-03-29T01:14:05.556Z,2.78
2023-03-29T01:16:35.132Z,4.63
2023-03-29T01:19:02.228Z,3.63
2023-03-29T01:21:39.725Z,4.05
2023-03-29T01:24:45.487Z,2.25
2023-03-29T01:27:31.786Z,4.47
2023-03-29T01:30:05.505Z,4.32
2023-03-29T01:32:38.876Z,4.43
2023-03-29T01:35:15.900Z,4.00
2023-03-29T01:38:05.482Z,4.47
2023-03-29T01:40:33.653Z,4.00
2023-03-29T01:43:34.856Z,3.50
2023-03-29T01:46:08.092Z,3.50
2023-03-29T01:48:49.936Z,2.15
2023-03-29T01:51:24.767Z,3.97
2023-03-29T01:54:03.697Z,3.20
2023-03-29T01:56:36.873Z,3.85
2023-03-29T01:59:08.274Z,3.83
2023-03-29T02:01:40.410Z,4.50
2023-03-29T02:04:13.141Z,3.28
2023-03-29T02:06:41.725Z,3.08
2023-03-29T02:09:09.068Z,3.75
2023-03-29T02:11:36.174Z,3.73
2023-03-29T02:14:02.743Z,5.03
2023-03-29T02:16:29.191Z,3.80
2023-03-29T02:18:57.659Z,3.67
2023-03-29T02:21:51.781Z,2.35
2023-03-29T02:24:20.649Z,3.13
2023-03-29T02:26:48.077Z,4.30
2023-03-29T02:29:15.120Z,2.95
2023-03-29T02:31:48.929Z,3.95
2023-03-29T02:34:28.429Z,4.20
2023-03-29T02:37:00.214Z,4.23
2023-03-29T02:39:28.965Z,4.78
2023-03-29T02:41:56.757Z,4.25
2023-03-29T02:44:27.780Z,4.20
2023-03-29T02:46:58.616Z,3.78
2023-03-29T02:49:25.333Z,3.80
2023-03-29T02:51:56.073Z,4.05
2023-03-29T02:54:25.934Z,3.72
2023-03-29T02:57:01.064Z,4.00
2023-03-29T02:59:29.941Z,6.53
2023-03-29T03:01:56.636Z,3.20
2023-03-29T03:04:23.137Z,6.15
2023-03-29T03:06:49.756Z,5.57
2023-03-29T03:09:16.705Z,4.60
2023-03-29T03:11:43.122Z,4.20
2023-03-29T03:14:09.768Z,3.60
2023-03-29T03:16:37.144Z,3.53
2023-03-29T03:19:03.835Z,4.53
2023-03-29T03:21:30.320Z,4.10
2023-03-29T03:23:56.945Z,5.13
2023-03-29T03:26:24.981Z,3.17
2023-03-29T03:28:51.390Z,4.30
2023-03-29T03:31:17.797Z,4.30
2023-03-29T03:33:44.734Z,5.00
2023-03-29T03:36:11.430Z,5.22
2023-03-29T03:38:38.516Z,2.83
2023-03-29T03:41:06.980Z,3.40
2023-03-29T03:43:34.119Z,4.82
2023-03-29T03:46:01.457Z,4.05
2023-03-29T03:48:27.955Z,4.75
2023-03-29T03:50:59.123Z,4.03
2023-03-29T03:53:27.271Z,4.20
2023-03-29T03:55:55.963Z,4.53
2023-03-29T03:58:23.361Z,2.55
2023-03-29T04:00:50.935Z,3.55
2023-03-29T04:03:18.454Z,3.00
2023-03-29T04:05:47.077Z,2.90
2023-03-29T04:08:14.890Z,2.72
2023-03-29T04:10:42.045Z,4.13
2023-03-29T04:13:08.513Z,4.07
2023-03-29T04:15:41.354Z,3.03
2023-03-29T04:18:07.875Z,5.53
2023-03-29T04:20:34.637Z,5.32
2023-03-29T04:23:01.533Z,3.42
2023-03-29T04:25:28.468Z,3.55
2023-03-29T04:27:54.958Z,3.70
2023-03-29T04:30:21.822Z,2.90
2023-03-29T04:32:48.740Z,3.65
2023-03-29T04:35:15.257Z,4.78
2023-03-29T04:37:41.856Z,4.50
2023-03-29T04:40:09.869Z,6.10
2023-03-29T04:42:37.434Z,5.18
2023-03-29T04:45:06.923Z,3.15
2023-03-29T04:47:36.254Z,5.40
2023-03-29T04:50:03.806Z,4.15
2023-03-29T04:52:33.182Z,4.63
2023-03-29T04:55:04.439Z,3.28
2023-03-29T04:57:31.004Z,3.67
2023-03-29T04:59:57.477Z,3.50
2023-03-29T05:02:24.121Z,2.90
2023-03-29T05:04:50.633Z,3.83
2023-03-29T05:07:18.184Z,3.10
2023-03-29T05:09:44.549Z,4.25
2023-03-29T05:12:11.100Z,3.20
2023-03-29T05:14:37.547Z,5.70
2023-03-29T05:17:05.056Z,5.77
2023-03-29T05:19:31.991Z,3.70
2023-03-29T05:21:59.085Z,3.75
2023-03-29T05:24:25.746Z,3.83
2023-03-29T05:26:52.375Z,4.50
2023-03-29T05:29:19.042Z,7.70
2023-03-29T05:31:45.825Z,2.40
2023-03-29T05:34:12.221Z,4.55
2023-03-29T05:36:39.164Z,5.07
2023-03-29T05:39:06.446Z,5.80
2023-03-29T05:41:33.643Z,4.07
2023-03-29T05:44:00.008Z,5.20
2023-03-29T05:46:26.968Z,4.63
2023-03-29T05:48:53.596Z,3.70
2023-03-29T05:51:24.108Z,3.85
2023-03-29T05:53:51.440Z,3.23
2023-03-29T05:56:18.998Z,3.47
2023-03-29T05:58:49.478Z,3.42
2023-03-29T06:01:18.134Z,4.15
2023-03-29T06:03:48.088Z,3.70
2023-03-29T06:06:16.405Z,4.80
2023-03-29T06:08:43.805Z,4.10
2023-03-29T06:11:13.222Z,4.13
2023-03-29T06:13:40.067Z,5.45
2023-03-29T06:16:10.765Z,6.63
2023-03-29T06:18:40.236Z,3.80
2023-03-29T06:21:09.164Z,5.03
2023-03-29T06:23:36.452Z,4.60
2023-03-29T06:26:05.612Z,4.57
2023-03-29T06:28:32.148Z,6.80
2023-03-29T06:31:02.923Z,3.17
2023-03-29T06:33:32.413Z,3.08
2023-03-29T06:35:58.997Z,5.90
2023-03-29T06:38:28.048Z,5.35
2023-03-29T06:41:05.974Z,4.78
2023-03-29T06:43:33.448Z,3.23
2023-03-29T06:46:00.655Z,6.15
2023-03-29T06:48:27.233Z,5.85
2023-03-29T06:50:54.565Z,5.10
2023-03-29T06:53:22.094Z,5.57
2023-03-29T06:55:50.699Z,4.90
2023-03-29T06:58:17.087Z,4.38
2023-03-29T07:00:43.465Z,7.10
2023-03-29T07:03:13.346Z,4.15
2023-03-29T07:05:42.045Z,4.63
2023-03-29T07:08:08.669Z,4.03
2023-03-29T07:10:41.232Z,5.55
2023-03-29T07:13:12.211Z,6.13
2023-03-29T07:15:43.254Z,4.45
2023-03-29T07:18:10.402Z,5.40
2023-03-29T07:20:38.751Z,5.53
2023-03-29T07:23:06.769Z,4.30
2023-03-29T07:25:33.905Z,5.93
2023-03-29T07:28:00.315Z,5.28
2023-03-29T07:30:31.973Z,7.07
2023-03-29T07:32:59.145Z,4.37
2023-03-29T07:35:26.815Z,5.03
2023-03-29T07:37:54.934Z,7.47
2023-03-29T07:40:23.636Z,6.95
2023-03-29T07:42:56.433Z,7.35
2023-03-29T07:45:26.446Z,4.30
2023-03-29T07:47:56.484Z,6.10
2023-03-29T07:50:23.120Z,5.20
2023-03-29T07:52:50.131Z,5.85
2023-03-29T07:55:17.032Z,5.43
2023-03-29T07:57:44.179Z,5.37
2023-03-29T08:00:16.154Z,5.47
2023-03-29T08:02:44.678Z,5.38
2023-03-29T08:05:13.637Z,7.93
2023-03-29T08:07:44.622Z,6.18
2023-03-29T08:10:13.774Z,7.23
2023-03-29T08:12:41.992Z,6.97
2023-03-29T08:15:09.428Z,6.45
2023-03-29T08:17:36.230Z,8.85
2023-03-29T08:20:04.173Z,7.95
2023-03-29T08:22:32.240Z,7.63
2023-03-29T08:24:58.987Z,8.88
2023-03-29T08:27:25.883Z,5.93
2023-03-29T08:29:52.277Z,9.55
2023-03-29T08:32:18.641Z,8.93
2023-03-29T08:34:45.193Z,9.37
2023-03-29T08:37:11.621Z,8.15
2023-03-29T08:39:38.531Z,8.85
2023-03-29T08:42:24.103Z,9.68
2023-03-29T08:45:06.258Z,9.13
2023-03-29T08:47:47.728Z,8.50
2023-03-29T08:50:15.092Z,10.30
2023-03-29T08:52:46.733Z,6.82
2023-03-29T08:55:37.959Z,7.22
2023-03-29T08:58:07.924Z,8.63
2023-03-29T09:00:42.889Z,12.57
2023-03-29T09:03:31.646Z,9.23
2023-03-29T09:06:04.754Z,10.05
2023-03-29T09:08:31.619Z,10.02
2023-03-29T09:11:16.462Z,9.43
2023-03-29T09:13:56.884Z,7.43
2023-03-29T09:16:33.402Z,10.48
2023-03-29T09:19:39.342Z,8.88
2023-03-29T09:22:14.091Z,9.30
2023-03-29T09:25:11.404Z,9.80
2023-03-29T09:27:58.131Z,9.80
2023-03-29T09:30:27.477Z,12.65
2023-03-29T09:33:17.085Z,9.90
2023-03-29T09:35:52.876Z,8.48
2023-03-29T09:38:22.104Z,8.38
2023-03-29T09:40:54.984Z,11.40
2023-03-29T09:43:31.952Z,13.20
2023-03-29T09:46:03.511Z,9.65
2023-03-29T09:48:34.526Z,9.90
2023-03-29T09:51:02.337Z,8.52
2023-03-29T09:53:28.970Z,8.53
2023-03-29T09:55:55.776Z,9.07
2023-03-29T09:58:31.667Z,10.65
2023-03-29T10:01:00.030Z,9.48
2023-03-29T10:03:31.801Z,8.98
2023-03-29T10:06:00.267Z,9.80
2023-03-29T10:08:36.524Z,8.43
2023-03-29T10:11:14.735Z,8.93
2023-03-29T10:13:50.593Z,8.95
2023-03-29T10:16:23.061Z,11.90
2023-03-29T10:18:50.363Z,9.80
2023-03-29T10:21:22.079Z,10.95
2023-03-29T10:23:49.838Z,10.35
2023-03-29T10:26:29.332Z,10.73
2023-03-29T10:28:57.390Z,8.90
2023-03-29T10:31:25.053Z,10.93
2023-03-29T10:33:54.653Z,11.27
2023-03-29T10:36:23.140Z,9.52
2023-03-29T10:38:52.081Z,11.45
2023-03-29T10:41:21.771Z,11.23
2023-03-29T10:43:51.090Z,13.80
2023-03-29T10:46:23.666Z,10.13
2023-03-29T10:48:59.002Z,12.60
2023-03-29T10:51:30.084Z,11.82
2023-03-29T10:54:01.425Z,11.18
2023-03-29T10:56:41.521Z,12.90
2023-03-29T10:59:24.194Z,13.00
2023-03-29T11:02:15.719Z,14.13
2023-03-29T11:05:09.061Z,13.63
2023-03-29T11:07:45.075Z,11.73
2023-03-29T11:10:47.650Z,11.43
2023-03-29T11:13:19.970Z,11.00
2023-03-29T11:16:08.424Z,11.43
2023-03-29T11:18:53.822Z,11.40
2023-03-29T11:21:47.026Z,14.55
2023-03-29T11:24:27.745Z,10.27
2023-03-29T11:27:15.980Z,10.95
2023-03-29T11:29:53.452Z,13.18
2023-03-29T11:32:38.140Z,13.70
2023-03-29T11:35:23.523Z,14.88
2023-03-29T11:37:49.854Z,12.30
2023-03-29T11:40:39.299Z,12.48
2023-03-29T11:43:20.385Z,11.05
2023-03-29T11:45:53.848Z,11.68
2023-03-29T11:48:24.849Z,13.43
2023-03-29T11:50:58.732Z,13.27
2023-03-29T11:53:48.989Z,10.07
2023-03-29T11:56:24.001Z,10.63
2023-03-29T11:58:56.587Z,11.38
2023-03-29T12:01:33.438Z,14.00
2023-03-29T12:04:07.761Z,9.20
2023-03-29T12:06:53.350Z,13.18
2023-03-29T12:09:28.841Z,12.55
2023-03-29T12:12:09.513Z,10.95
2023-03-29T12:14:49.217Z,14.93
2023-03-29T12:17:23.062Z,14.13
2023-03-29T12:20:04.474Z,14.15
2023-03-29T12:22:32.378Z,14.95
2023-03-29T12:25:00.174Z,14.57
2023-03-29T12:27:46.857Z,14.95
2023-03-29T12:30:46.521Z,15.30
2023-03-29T12:33:43.619Z,16.05
2023-03-29T12:36:31.475Z,15.98
2023-03-29T12:38:58.281Z,12.32
2023-03-29T12:41:25.051Z,15.38
2023-03-29T12:43:51.591Z,15.30
2023-03-29T12:46:26.743Z,13.73
2023-03-29T12:49:06.062Z,15.32
2023-03-29T12:51:34.579Z,16.10
2023-03-29T12:54:15.048Z,17.05
2023-03-29T12:56:53.998Z,19.47
2023-03-29T12:59:44.330Z,18.85
2023-03-29T13:02:22.729Z,17.48
2023-03-29T13:04:57.941Z,16.23
2023-03-29T13:07:26.338Z,15.35
2023-03-29T13:09:58.467Z,17.17
2023-03-29T13:12:30.792Z,17.30
2023-03-29T13:15:26.901Z,18.73
2023-03-29T13:18:03.813Z,14.30
2023-03-29T13:20:52.021Z,13.98
2023-03-29T13:24:00.743Z,13.47
2023-03-29T13:26:53.988Z,15.07
2023-03-29T13:29:37.353Z,12.85
2023-03-29T13:32:36.577Z,15.63
2023-03-29T13:35:38.604Z,14.77
2023-03-29T13:38:16.303Z,16.07
2023-03-29T13:40:47.637Z,15.30
2023-03-29T13:43:20.167Z,16.52
2023-03-29T13:45:58.762Z,14.63
2023-03-29T13:48:29.604Z,15.82
2023-03-29T13:51:00.895Z,18.50
2023-03-29T13:53:49.620Z,16.63
2023-03-29T13:56:23.078Z,17.30
2023-03-29T13:58:53.910Z,17.83
2023-03-29T14:01:39.053Z,17.35
2023-03-29T14:04:12.902Z,15.03
2023-03-29T14:06:42.805Z,15.30
2023-03-29T14:09:12.788Z,16.52
2023-03-29T14:11:45.030Z,15.75
2023-03-29T14:14:11.596Z,18.20
2023-03-29T14:16:40.088Z,16.20
2023-03-29T14:19:15.312Z,13.98
2023-03-29T14:21:42.570Z,14.40
2023-03-29T14:24:20.702Z,15.07
2023-03-29T14:26:47.923Z,12.88
2023-03-29T14:29:15.076Z,14.63
2023-03-29T14:31:42.489Z,13.93
2023-03-29T14:34:18.767Z,14.88
2023-03-29T14:36:46.874Z,15.60
2023-03-29T14:39:20.984Z,12.82
2023-03-29T14:41:55.397Z,13.10
2023-03-29T14:44:26.114Z,16.05
2023-03-29T14:46:53.712Z,13.75
2023-03-29T14:49:22.920Z,9.75
2023-03-29T14:51:50.265Z,12.73
2023-03-29T14:54:20.903Z,12.80
2023-03-29T14:56:48.731Z,10.85
2023-03-29T14:59:49.674Z,11.68
2023-03-29T15:02:33.462Z,11.25
2023-03-29T15:05:05.794Z,11.52
2023-03-29T15:07:34.563Z,12.27
2023-03-29T15:10:03.120Z,13.40
2023-03-29T15:12:30.880Z,11.02
2023-03-29T15:14:58.198Z,12.95
2023-03-29T15:17:43.026Z,8.40
2023-03-29T15:20:21.508Z,9.77
2023-03-29T15:23:16.959Z,11.35
2023-03-29T15:25:50.426Z,9.50
2023-03-29T15:28:34.855Z,9.70
2023-03-29T15:33:34.828Z,10.30
2023-03-29T15:36:03.420Z,9.00
2023-03-29T15:38:42.622Z,9.40
2023-03-29T15:41:10.768Z,6.65
2023-03-29T15:43:37.447Z,8.07
2023-03-29T15:46:04.322Z,7.03
2023-03-29T15:48:33.664Z,8.55
2023-03-29T15:51:04.560Z,6.80
2023-03-29T15:53:32.708Z,10.18
2023-03-29T15:56:02.478Z,7.45
2023-03-29T15:58:31.818Z,6.13
2023-03-29T16:01:00.708Z,11.50
2023-03-29T16:03:27.356Z,8.68
2023-03-29T16:05:56.836Z,7.00
2023-03-29T16:08:25.076Z,8.32
2023-03-29T16:10:51.719Z,7.30
2023-03-29T16:13:18.197Z,6.82
2023-03-29T16:15:45.768Z,6.32
2023-03-29T16:18:12.156Z,6.15
2023-03-29T16:20:38.904Z,6.22
2023-03-29T16:23:09.728Z,6.33
2023-03-29T16:25:38.347Z,6.85
2023-03-29T16:28:05.621Z,6.03
2023-03-29T16:30:32.626Z,5.57
2023-03-29T16:32:59.196Z,6.63
2023-03-29T16:35:28.745Z,5.70
2023-03-29T16:37:55.379Z,5.43
2023-03-29T16:40:21.850Z,7.00
2023-03-29T16:42:48.386Z,6.70
2023-03-29T16:45:15.535Z,5.38
2023-03-29T16:47:44.357Z,7.20
2023-03-29T16:50:19.754Z,7.57
2023-03-29T16:52:47.890Z,8.27
2023-03-29T16:55:15.698Z,8.82
2023-03-29T16:57:42.676Z,6.70
2023-03-29T17:00:11.238Z,5.63
2023-03-29T17:02:37.797Z,6.10
2023-03-29T17:05:04.469Z,7.63
2023-03-29T17:07:30.956Z,8.88
2023-03-29T17:09:57.423Z,7.05
2023-03-29T17:12:24.060Z,8.40
2023-03-29T17:14:51.304Z,7.78
2023-03-29T17:17:17.724Z,6.78
2023-03-29T17:19:44.209Z,9.38
2023-03-29T17:22:10.697Z,8.82
2023-03-29T17:24:37.072Z,6.13
2023-03-29T17:27:03.566Z,8.02
2023-03-29T17:29:30.106Z,6.45
2023-03-29T17:31:56.551Z,7.80
2023-03-29T17:34:23.174Z,8.30
2023-03-29T17:36:53.244Z,6.97
2023-03-29T17:39:19.699Z,7.90
2023-03-29T17:41:47.240Z,7.03
2023-03-29T17:44:13.837Z,7.43
2023-03-29T17:46:40.316Z,8.90
2023-03-29T17:49:07.248Z,7.40
2023-03-29T17:51:33.628Z,5.90
2023-03-29T17:54:00.175Z,9.13
2023-03-29T17:56:26.634Z,7.18
2023-03-29T17:58:53.475Z,8.23
2023-03-29T18:01:20.336Z,7.03
2023-03-29T18:03:50.464Z,7.60
2023-03-29T18:06:20.171Z,8.98
2023-03-29T18:08:47.305Z,8.75
2023-03-29T18:11:17.208Z,7.30
2023-03-29T18:13:44.753Z,6.60
2023-03-29T18:16:11.442Z,7.20
2023-03-29T18:18:38.613Z,7.30
2023-03-29T18:21:06.935Z,6.03
2023-03-29T18:23:33.814Z,5.55
2023-03-29T18:26:02.798Z,6.77
2023-03-29T18:28:30.574Z,6.82
2023-03-29T18:30:57.212Z,7.35
2023-03-29T18:33:24.440Z,8.18
2023-03-29T18:35:51.856Z,7.22
2023-03-29T18:38:22.415Z,7.47
2023-03-29T18:40:50.510Z,10.55
2023-03-29T18:43:17.017Z,9.02
2023-03-29T18:45:44.489Z,6.72
2023-03-29T18:48:11.074Z,8.20
2023-03-29T18:50:37.621Z,5.90
2023-03-29T18:53:04.445Z,8.13
2023-03-29T18:55:31.097Z,8.68
2023-03-29T18:57:57.465Z,6.03
2023-03-29T19:00:23.938Z,6.40
2023-03-29T19:02:50.601Z,5.83
2023-03-29T19:05:17.043Z,8.90
2023-03-29T19:07:43.512Z,10.07
2023-03-29T19:10:10.223Z,7.82
2023-03-29T19:12:36.757Z,7.43
2023-03-29T19:15:03.526Z,7.80
2023-03-29T19:17:30.102Z,10.57
2023-03-29T19:19:56.760Z,7.80
2023-03-29T19:22:23.356Z,6.30
2023-03-29T19:24:49.820Z,5.93
2023-03-29T19:27:16.585Z,7.27
2023-03-29T19:29:42.989Z,8.38
2023-03-29T19:32:09.425Z,5.25
2023-03-29T19:34:36.189Z,6.18
2023-03-29T19:37:02.645Z,5.88
2023-03-29T19:39:29.804Z,5.13
2023-03-29T19:41:56.588Z,7.55
2023-03-29T19:44:26.034Z,7.30
2023-03-29T19:46:52.532Z,5.85
2023-03-29T19:49:19.175Z,6.68
2023-03-29T19:51:45.620Z,6.60
2023-03-29T19:54:13.228Z,6.28
2023-03-29T19:56:40.633Z,7.10
2023-03-29T19:59:08.900Z,6.28
2023-03-29T20:01:37.493Z,5.22
2023-03-29T20:04:04.670Z,5.83
2023-03-29T20:06:31.073Z,6.07
2023-03-29T20:08:58.654Z,6.07
2023-03-29T20:11:25.167Z,6.35
2023-03-29T20:13:51.582Z,10.15
2023-03-29T20:16:19.153Z,5.70
2023-03-29T20:18:46.500Z,7.60
2023-03-29T20:21:16.564Z,4.95
2023-03-29T20:23:43.369Z,4.88
2023-03-29T20:26:10.507Z,6.47
2023-03-29T20:28:37.649Z,6.90
2023-03-29T20:31:06.826Z,8.00
2023-03-29T20:33:33.552Z,6.30
2023-03-29T20:36:02.993Z,5.30
2023-03-29T20:38:29.461Z,6.10
2023-03-29T20:40:55.863Z,6.40
2023-03-29T20:43:22.637Z,7.88
2023-03-29T20:46:14.799Z,5.78
2023-03-29T20:48:54.062Z,8.05
2023-03-29T20:51:22.246Z,6.55
2023-03-29T20:53:48.796Z,5.73
2023-03-29T20:56:15.241Z,6.43
2023-03-29T20:58:43.752Z,10.75
2023-03-29T21:01:14.292Z,6.78
2023-03-29T21:03:42.166Z,5.70
2023-03-29T21:06:09.533Z,5.93
2023-03-29T21:08:35.968Z,5.85
2023-03-29T21:11:03.224Z,5.43
2023-03-29T21:13:30.029Z,6.68
2023-03-29T21:15:56.943Z,5.30
2023-03-29T21:18:23.423Z,4.83
2023-03-29T21:20:49.779Z,7.20
2023-03-29T21:23:16.315Z,5.70
2023-03-29T21:25:43.964Z,7.30
2023-03-29T21:28:12.116Z,5.32
2023-03-29T21:30:38.759Z,6.53
2023-03-29T21:33:05.606Z,7.43
2023-03-29T21:35:35.612Z,8.52
2023-03-29T21:38:02.305Z,8.68
2023-03-29T21:40:28.725Z,6.80
2023-03-29T21:42:55.317Z,7.70
2023-03-29T21:45:21.782Z,6.40
2023-03-29T21:47:48.273Z,7.82
2023-03-29T21:50:16.109Z,6.38
2023-03-29T21:52:42.547Z,7.35
2023-03-29T21:55:13.067Z,7.40
2023-03-29T21:57:48.901Z,7.13
2023-03-29T22:00:17.396Z,5.55
2023-03-29T22:02:45.853Z,6.45
2023-03-29T22:05:12.425Z,6.32
2023-03-29T22:07:39.772Z,6.60
2023-03-29T22:10:12.324Z,7.13
2023-03-29T22:12:39.600Z,6.93
2023-03-29T22:15:08.558Z,6.75
2023-03-29T22:17:36.024Z,6.55
2023-03-29T22:20:13.799Z,7.03
2023-03-29T22:22:47.035Z,5.82
2023-03-29T22:25:13.597Z,8.77
2023-03-29T22:27:40.297Z,5.10
2023-03-29T22:30:08.071Z,6.85
2023-03-29T22:32:34.557Z,5.03
2023-03-29T22:35:01.098Z,8.90
2023-03-29T22:37:27.530Z,5.43
2023-03-29T22:40:01.895Z,6.35
2023-03-29T22:42:28.361Z,6.40
2023-03-29T22:44:54.761Z,4.40
2023-03-29T22:47:22.201Z,5.57
2023-03-29T22:49:48.666Z,6.13
2023-03-29T22:52:16.190Z,7.05
2023-03-29T22:54:43.687Z,7.40
2023-03-29T22:57:10.125Z,5.70
2023-03-29T22:59:36.536Z,6.18
2023-03-29T23:02:03.108Z,6.00
2023-03-29T23:04:29.781Z,7.47
2023-03-29T23:07:23.280Z,5.30
2023-03-29T23:09:50.552Z,7.07
2023-03-29T23:12:17.063Z,3.72
2023-03-29T23:14:59.069Z,5.50
2023-03-29T23:17:25.525Z,6.28
2023-03-29T23:19:52.942Z,7.07
2023-03-29T23:22:34.215Z,5.63
2023-03-29T23:25:11.968Z,5.13
2023-03-29T23:27:38.374Z,7.20
2023-03-29T23:30:07.503Z,4.88
2023-03-29T23:32:33.966Z,7.05
2023-03-29T23:35:19.545Z,6.63
2023-03-29T23:38:19.744Z,6.82
2023-03-29T23:40:58.826Z,6.28
2023-03-29T23:43:27.234Z,5.22
2023-03-29T23:45:57.639Z,6.32
2023-03-29T23:48:30.248Z,5.77
2023-03-29T23:50:59.657Z,7.28
2023-03-29T23:53:34.151Z,8.25
2023-03-29T23:56:03.980Z,4.93
2023-03-29T23:58:35.940Z,6.00
